sensor_id;sensor_type;location;lat;lon;timestamp;P1;durP1;ratioP1;P2;durP2;ratioP2
80245;SDS011;69558;39.208;-77.226;2023-08-06T00:01:27;6.88;;;5.35;;
80245;SDS011;69558;39.208;-77.226;2023-08-06T00:03:54;6.68;;;4.93;;
80245;SDS011;69558;39.208;-77.226;2023-08-06T00:06:20;6.88;;;4.78;;
80245;SDS011;69558;39.208;-77.226;2023-08-06T00:08:45;6.70;;;4.80;;
80245;SDS011;69558;39.208;-77.226;2023-08-06T00:11:12;6.78;;;4.68;;
80245;SDS011;69558;39.208;-77.226;2023-08-06T00:13:38;6.88;;;4.75;;
80245;SDS011;69558;39.208;-77.226;2023-08-06T00:16:11;6.10;;;4.30;;
80245;SDS011;69558;39.208;-77.226;2023-08-06T00:18:37;7.05;;;5.22;;
80245;SDS011;69558;39.208;-77.226;2023-08-06T00:21:04;7.10;;;4.85;;
80245;SDS011;69558;39.208;-77.226;2023-08-06T00:23:30;7.43;;;5.25;;
80245;SDS011;69558;39.208;-77.226;2023-08-06T00:25:56;7.32;;;5.18;;
80245;SDS011;69558;39.208;-77.226;2023-08-06T00:28:22;6.53;;;4.57;;
80245;SDS011;69558;39.208;-77.226;2023-08-06T00:30:54;7.40;;;4.80;;
80245;SDS011;69558;39.208;-77.226;2023-08-06T00:33:21;6.50;;;4.43;;
80245;SDS011;69558;39.208;-77.226;2023-08-06T00:35:47;6.57;;;4.90;;
80245;SDS011;69558;39.208;-77.226;2023-08-06T00:38:13;6.65;;;4.53;;
80245;SDS011;69558;39.208;-77.226;2023-08-06T00:40:39;6.25;;;4.25;;
80245;SDS011;69558;39.208;-77.226;2023-08-06T00:43:05;6.97;;;4.78;;
80245;SDS011;69558;39.208;-77.226;2023-08-06T00:45:33;7.35;;;5.03;;
80245;SDS011;69558;39.208;-77.226;2023-08-06T00:48:02;7.10;;;5.22;;
80245;SDS011;69558;39.208;-77.226;2023-08-06T00:50:30;6.95;;;5.00;;
80245;SDS011;69558;39.208;-77.226;2023-08-06T00:52:56;7.53;;;5.05;;
80245;SDS011;69558;39.208;-77.226;2023-08-06T00:55:23;6.88;;;5.65;;
80245;SDS011;69558;39.208;-77.226;2023-08-06T00:57:49;6.90;;;5.03;;
80245;SDS011;69558;39.208;-77.226;2023-08-06T01:00:16;6.47;;;4.75;;
80245;SDS011;69558;39.208;-77.226;2023-08-06T01:02:42;6.88;;;4.55;;
80245;SDS011;69558;39.208;-77.226;2023-08-06T01:05:08;7.22;;;5.43;;
80245;SDS011;69558;39.208;-77.226;2023-08-06T01:07:43;7.22;;;4.93;;
80245;SDS011;69558;39.208;-77.226;2023-08-06T01:15:32;7.60;;;5.10;;
80245;SDS011;69558;39.208;-77.226;2023-08-06T01:18:03;7.28;;;5.00;;
80245;SDS011;69558;39.208;-77.226;2023-08-06T01:20:30;6.68;;;4.68;;
80245;SDS011;69558;39.208;-77.226;2023-08-06T01:22:57;7.00;;;5.18;;
80245;SDS011;69558;39.208;-77.226;2023-08-06T01:25:25;8.25;;;6.32;;
80245;SDS011;69558;39.208;-77.226;2023-08-06T01:28:01;7.10;;;5.22;;
80245;SDS011;69558;39.208;-77.226;2023-08-06T01:33:04;7.88;;;5.97;;
80245;SDS011;69558;39.208;-77.226;2023-08-06T01:35:33;8.40;;;5.57;;
80245;SDS011;69558;39.208;-77.226;2023-08-06T01:38:00;8.23;;;5.72;;
80245;SDS011;69558;39.208;-77.226;2023-08-06T01:40:27;7.35;;;5.63;;
80245;SDS011;69558;39.208;-77.226;2023-08-06T01:42:54;7.32;;;5.32;;
80245;SDS011;69558;39.208;-77.226;2023-08-06T01:45:20;8.00;;;6.15;;
80245;SDS011;69558;39.208;-77.226;2023-08-06T01:47:46;8.45;;;5.47;;
80245;SDS011;69558;39.208;-77.226;2023-08-06T01:50:12;7.38;;;5.32;;
80245;SDS011;69558;39.208;-77.226;2023-08-06T01:52:38;7.43;;;5.55;;
80245;SDS011;69558;39.208;-77.226;2023-08-06T01:55:04;8.07;;;6.72;;
80245;SDS011;69558;39.208;-77.226;2023-08-06T01:57:30;7.50;;;5.53;;
80245;SDS011;69558;39.208;-77.226;2023-08-06T01:59:56;6.95;;;5.32;;
80245;SDS011;69558;39.208;-77.226;2023-08-06T02:02:22;7.88;;;5.28;;
80245;SDS011;69558;39.208;-77.226;2023-08-06T02:04:48;7.85;;;5.32;;
80245;SDS011;69558;39.208;-77.226;2023-08-06T02:07:14;7.85;;;5.78;;
80245;SDS011;69558;39.208;-77.226;2023-08-06T02:09:40;7.30;;;5.30;;
80245;SDS011;69558;39.208;-77.226;2023-08-06T02:12:07;6.90;;;5.25;;
80245;SDS011;69558;39.208;-77.226;2023-08-06T02:14:33;7.60;;;5.40;;
80245;SDS011;69558;39.208;-77.226;2023-08-06T02:16:59;9.75;;;6.28;;
80245;SDS011;69558;39.208;-77.226;2023-08-06T02:19:26;7.75;;;5.53;;
80245;SDS011;69558;39.208;-77.226;2023-08-06T02:21:52;8.20;;;5.82;;
80245;SDS011;69558;39.208;-77.226;2023-08-06T02:24:18;7.80;;;5.47;;
80245;SDS011;69558;39.208;-77.226;2023-08-06T02:26:44;9.48;;;6.78;;
80245;SDS011;69558;39.208;-77.226;2023-08-06T02:29:10;8.93;;;6.38;;
80245;SDS011;69558;39.208;-77.226;2023-08-06T02:31:36;7.65;;;6.03;;
80245;SDS011;69558;39.208;-77.226;2023-08-06T02:34:02;7.70;;;5.65;;
80245;SDS011;69558;39.208;-77.226;2023-08-06T02:36:28;7.30;;;5.45;;
80245;SDS011;69558;39.208;-77.226;2023-08-06T02:38:54;7.25;;;5.43;;
80245;SDS011;69558;39.208;-77.226;2023-08-06T02:41:20;7.97;;;5.40;;
80245;SDS011;69558;39.208;-77.226;2023-08-06T02:43:46;8.50;;;5.75;;
80245;SDS011;69558;39.208;-77.226;2023-08-06T02:46:12;8.30;;;6.00;;
80245;SDS011;69558;39.208;-77.226;2023-08-06T02:48:38;8.10;;;5.80;;
80245;SDS011;69558;39.208;-77.226;2023-08-06T02:51:04;7.75;;;6.00;;
80245;SDS011;69558;39.208;-77.226;2023-08-06T02:53:30;7.95;;;6.00;;
80245;SDS011;69558;39.208;-77.226;2023-08-06T02:55:56;7.28;;;5.28;;
80245;SDS011;69558;39.208;-77.226;2023-08-06T02:58:22;7.90;;;6.22;;
80245;SDS011;69558;39.208;-77.226;2023-08-06T03:03:32;7.43;;;5.63;;
80245;SDS011;69558;39.208;-77.226;2023-08-06T03:05:58;7.82;;;5.80;;
80245;SDS011;69558;39.208;-77.226;2023-08-06T03:08:25;8.63;;;5.93;;
80245;SDS011;69558;39.208;-77.226;2023-08-06T03:10:51;7.78;;;5.63;;
80245;SDS011;69558;39.208;-77.226;2023-08-06T03:13:18;8.05;;;5.90;;
80245;SDS011;69558;39.208;-77.226;2023-08-06T03:15:54;8.02;;;5.95;;
80245;SDS011;69558;39.208;-77.226;2023-08-06T03:18:21;8.23;;;5.78;;
80245;SDS011;69558;39.208;-77.226;2023-08-06T03:20:47;7.68;;;5.82;;
80245;SDS011;69558;39.208;-77.226;2023-08-06T03:23:14;7.68;;;5.88;;
80245;SDS011;69558;39.208;-77.226;2023-08-06T03:25:40;7.85;;;5.93;;
80245;SDS011;69558;39.208;-77.226;2023-08-06T03:28:06;7.93;;;5.82;;
80245;SDS011;69558;39.208;-77.226;2023-08-06T03:30:32;8.13;;;6.03;;
80245;SDS011;69558;39.208;-77.226;2023-08-06T03:32:58;7.80;;;5.70;;
80245;SDS011;69558;39.208;-77.226;2023-08-06T03:35:24;7.50;;;5.63;;
80245;SDS011;69558;39.208;-77.226;2023-08-06T03:37:50;8.32;;;6.10;;
80245;SDS011;69558;39.208;-77.226;2023-08-06T03:40:16;7.65;;;5.70;;
80245;SDS011;69558;39.208;-77.226;2023-08-06T03:42:42;9.27;;;7.10;;
80245;SDS011;69558;39.208;-77.226;2023-08-06T03:45:08;7.78;;;6.05;;
80245;SDS011;69558;39.208;-77.226;2023-08-06T03:47:34;8.88;;;6.32;;
80245;SDS011;69558;39.208;-77.226;2023-08-06T03:50:00;9.77;;;6.35;;
80245;SDS011;69558;39.208;-77.226;2023-08-06T03:52:26;8.60;;;6.43;;
80245;SDS011;69558;39.208;-77.226;2023-08-06T03:54:52;8.93;;;6.68;;
80245;SDS011;69558;39.208;-77.226;2023-08-06T03:57:18;7.88;;;5.93;;
80245;SDS011;69558;39.208;-77.226;2023-08-06T03:59:44;7.80;;;5.55;;
80245;SDS011;69558;39.208;-77.226;2023-08-06T04:02:10;8.30;;;5.70;;
80245;SDS011;69558;39.208;-77.226;2023-08-06T04:04:36;8.38;;;6.32;;
80245;SDS011;69558;39.208;-77.226;2023-08-06T04:07:02;8.60;;;5.65;;
80245;SDS011;69558;39.208;-77.226;2023-08-06T04:09:28;7.85;;;5.78;;
80245;SDS011;69558;39.208;-77.226;2023-08-06T04:11:54;8.18;;;7.20;;
80245;SDS011;69558;39.208;-77.226;2023-08-06T04:14:21;8.95;;;6.70;;
80245;SDS011;69558;39.208;-77.226;2023-08-06T04:16:47;7.70;;;6.28;;
80245;SDS011;69558;39.208;-77.226;2023-08-06T04:19:12;8.05;;;6.07;;
80245;SDS011;69558;39.208;-77.226;2023-08-06T04:21:38;8.98;;;6.97;;
80245;SDS011;69558;39.208;-77.226;2023-08-06T04:24:04;8.00;;;6.70;;
80245;SDS011;69558;39.208;-77.226;2023-08-06T04:26:30;7.63;;;5.72;;
80245;SDS011;69558;39.208;-77.226;2023-08-06T04:28:56;7.85;;;6.00;;
80245;SDS011;69558;39.208;-77.226;2023-08-06T04:31:22;8.13;;;6.50;;
80245;SDS011;69558;39.208;-77.226;2023-08-06T04:33:48;8.50;;;6.72;;
80245;SDS011;69558;39.208;-77.226;2023-08-06T04:36:14;7.75;;;6.10;;
80245;SDS011;69558;39.208;-77.226;2023-08-06T04:38:40;8.77;;;6.90;;
80245;SDS011;69558;39.208;-77.226;2023-08-06T04:41:10;8.85;;;5.85;;
80245;SDS011;69558;39.208;-77.226;2023-08-06T04:43:37;7.72;;;5.82;;
80245;SDS011;69558;39.208;-77.226;2023-08-06T04:46:02;9.30;;;6.18;;
80245;SDS011;69558;39.208;-77.226;2023-08-06T04:48:28;7.65;;;5.95;;
80245;SDS011;69558;39.208;-77.226;2023-08-06T04:50:54;7.55;;;6.00;;
80245;SDS011;69558;39.208;-77.226;2023-08-06T04:53:20;7.68;;;5.82;;
80245;SDS011;69558;39.208;-77.226;2023-08-06T04:55:46;7.78;;;5.65;;
80245;SDS011;69558;39.208;-77.226;2023-08-06T04:58:12;8.13;;;6.38;;
80245;SDS011;69558;39.208;-77.226;2023-08-06T05:00:38;9.02;;;5.75;;
80245;SDS011;69558;39.208;-77.226;2023-08-06T05:03:05;8.10;;;6.20;;
80245;SDS011;69558;39.208;-77.226;2023-08-06T05:05:32;8.00;;;5.95;;
80245;SDS011;69558;39.208;-77.226;2023-08-06T05:07:58;8.57;;;6.30;;
80245;SDS011;69558;39.208;-77.226;2023-08-06T05:10:25;8.07;;;5.90;;
80245;SDS011;69558;39.208;-77.226;2023-08-06T05:12:51;7.55;;;5.93;;
80245;SDS011;69558;39.208;-77.226;2023-08-06T05:15:17;8.32;;;6.03;;
80245;SDS011;69558;39.208;-77.226;2023-08-06T05:17:44;8.20;;;6.22;;
80245;SDS011;69558;39.208;-77.226;2023-08-06T05:20:10;10.13;;;6.40;;
80245;SDS011;69558;39.208;-77.226;2023-08-06T05:22:37;7.35;;;5.55;;
80245;SDS011;69558;39.208;-77.226;2023-08-06T05:25:03;8.15;;;6.25;;
80245;SDS011;69558;39.208;-77.226;2023-08-06T05:27:29;8.75;;;6.55;;
80245;SDS011;69558;39.208;-77.226;2023-08-06T05:29:55;8.25;;;7.03;;
80245;SDS011;69558;39.208;-77.226;2023-08-06T05:32:22;8.18;;;5.85;;
80245;SDS011;69558;39.208;-77.226;2023-08-06T05:34:48;7.55;;;6.07;;
80245;SDS011;69558;39.208;-77.226;2023-08-06T05:37:14;8.10;;;6.35;;
80245;SDS011;69558;39.208;-77.226;2023-08-06T05:39:40;8.18;;;6.47;;
80245;SDS011;69558;39.208;-77.226;2023-08-06T05:42:06;7.82;;;6.38;;
80245;SDS011;69558;39.208;-77.226;2023-08-06T05:44:32;8.60;;;6.57;;
80245;SDS011;69558;39.208;-77.226;2023-08-06T05:46:59;8.18;;;6.38;;
80245;SDS011;69558;39.208;-77.226;2023-08-06T05:49:24;8.95;;;6.60;;
80245;SDS011;69558;39.208;-77.226;2023-08-06T05:51:50;8.45;;;6.53;;
80245;SDS011;69558;39.208;-77.226;2023-08-06T05:54:18;8.25;;;6.25;;
80245;SDS011;69558;39.208;-77.226;2023-08-06T05:56:44;7.40;;;6.15;;
80245;SDS011;69558;39.208;-77.226;2023-08-06T05:59:10;8.05;;;6.30;;
80245;SDS011;69558;39.208;-77.226;2023-08-06T06:01:36;9.35;;;6.05;;
80245;SDS011;69558;39.208;-77.226;2023-08-06T06:04:02;7.90;;;6.10;;
80245;SDS011;69558;39.208;-77.226;2023-08-06T06:06:28;8.65;;;6.38;;
80245;SDS011;69558;39.208;-77.226;2023-08-06T06:08:55;7.95;;;6.15;;
80245;SDS011;69558;39.208;-77.226;2023-08-06T06:11:21;8.85;;;6.53;;
80245;SDS011;69558;39.208;-77.226;2023-08-06T06:13:49;8.68;;;6.70;;
80245;SDS011;69558;39.208;-77.226;2023-08-06T06:16:16;8.30;;;6.80;;
80245;SDS011;69558;39.208;-77.226;2023-08-06T06:18:41;8.10;;;6.63;;
80245;SDS011;69558;39.208;-77.226;2023-08-06T06:21:07;8.82;;;6.25;;
80245;SDS011;69558;39.208;-77.226;2023-08-06T06:23:34;8.38;;;6.53;;
80245;SDS011;69558;39.208;-77.226;2023-08-06T06:26:00;8.73;;;6.97;;
80245;SDS011;69558;39.208;-77.226;2023-08-06T06:28:26;9.82;;;6.80;;
80245;SDS011;69558;39.208;-77.226;2023-08-06T06:30:52;8.43;;;6.82;;
80245;SDS011;69558;39.208;-77.226;2023-08-06T06:33:18;9.15;;;6.80;;
80245;SDS011;69558;39.208;-77.226;2023-08-06T06:35:44;9.23;;;7.15;;
80245;SDS011;69558;39.208;-77.226;2023-08-06T06:38:10;9.52;;;7.95;;
80245;SDS011;69558;39.208;-77.226;2023-08-06T06:40:36;9.05;;;7.07;;
80245;SDS011;69558;39.208;-77.226;2023-08-06T06:43:02;9.15;;;6.97;;
80245;SDS011;69558;39.208;-77.226;2023-08-06T06:45:28;8.30;;;7.38;;
80245;SDS011;69558;39.208;-77.226;2023-08-06T06:47:54;8.88;;;6.70;;
80245;SDS011;69558;39.208;-77.226;2023-08-06T06:50:20;8.50;;;6.68;;
80245;SDS011;69558;39.208;-77.226;2023-08-06T06:52:46;7.95;;;6.05;;
80245;SDS011;69558;39.208;-77.226;2023-08-06T06:55:12;8.57;;;6.38;;
80245;SDS011;69558;39.208;-77.226;2023-08-06T06:57:38;8.60;;;6.22;;
80245;SDS011;69558;39.208;-77.226;2023-08-06T07:00:04;8.18;;;6.43;;
80245;SDS011;69558;39.208;-77.226;2023-08-06T07:02:30;9.27;;;6.65;;
80245;SDS011;69558;39.208;-77.226;2023-08-06T07:04:56;8.60;;;6.65;;
80245;SDS011;69558;39.208;-77.226;2023-08-06T07:07:22;8.63;;;6.82;;
80245;SDS011;69558;39.208;-77.226;2023-08-06T07:09:48;7.45;;;5.97;;
80245;SDS011;69558;39.208;-77.226;2023-08-06T07:12:14;10.43;;;7.03;;
80245;SDS011;69558;39.208;-77.226;2023-08-06T07:14:40;9.05;;;6.60;;
80245;SDS011;69558;39.208;-77.226;2023-08-06T07:17:06;8.60;;;6.32;;
80245;SDS011;69558;39.208;-77.226;2023-08-06T07:19:32;8.57;;;6.50;;
80245;SDS011;69558;39.208;-77.226;2023-08-06T07:21:58;7.97;;;6.15;;
80245;SDS011;69558;39.208;-77.226;2023-08-06T07:24:24;8.20;;;6.32;;
80245;SDS011;69558;39.208;-77.226;2023-08-06T07:26:51;9.60;;;6.80;;
80245;SDS011;69558;39.208;-77.226;2023-08-06T07:29:17;8.50;;;6.22;;
80245;SDS011;69558;39.208;-77.226;2023-08-06T07:31:46;8.80;;;6.50;;
80245;SDS011;69558;39.208;-77.226;2023-08-06T07:34:13;8.80;;;6.72;;
80245;SDS011;69558;39.208;-77.226;2023-08-06T07:36:39;8.15;;;6.28;;
80245;SDS011;69558;39.208;-77.226;2023-08-06T07:39:05;8.23;;;6.32;;
80245;SDS011;69558;39.208;-77.226;2023-08-06T07:41:31;8.05;;;6.45;;
80245;SDS011;69558;39.208;-77.226;2023-08-06T07:43:57;9.07;;;6.63;;
80245;SDS011;69558;39.208;-77.226;2023-08-06T07:46:23;8.02;;;6.50;;
80245;SDS011;69558;39.208;-77.226;2023-08-06T07:48:49;8.30;;;6.18;;
80245;SDS011;69558;39.208;-77.226;2023-08-06T07:51:15;7.88;;;6.40;;
80245;SDS011;69558;39.208;-77.226;2023-08-06T07:53:42;9.82;;;7.15;;
80245;SDS011;69558;39.208;-77.226;2023-08-06T07:56:08;9.13;;;6.82;;
80245;SDS011;69558;39.208;-77.226;2023-08-06T07:58:34;8.85;;;6.80;;
80245;SDS011;69558;39.208;-77.226;2023-08-06T08:01:00;7.65;;;6.13;;
80245;SDS011;69558;39.208;-77.226;2023-08-06T08:03:26;8.80;;;6.68;;
80245;SDS011;69558;39.208;-77.226;2023-08-06T08:05:53;8.35;;;6.50;;
80245;SDS011;69558;39.208;-77.226;2023-08-06T08:08:24;8.02;;;6.22;;
80245;SDS011;69558;39.208;-77.226;2023-08-06T08:10:50;8.95;;;7.00;;
80245;SDS011;69558;39.208;-77.226;2023-08-06T08:13:16;7.47;;;6.05;;
80245;SDS011;69558;39.208;-77.226;2023-08-06T08:15:42;7.95;;;6.00;;
80245;SDS011;69558;39.208;-77.226;2023-08-06T08:18:08;8.30;;;6.63;;
80245;SDS011;69558;39.208;-77.226;2023-08-06T08:20:34;7.85;;;6.22;;
80245;SDS011;69558;39.208;-77.226;2023-08-06T08:23:01;8.98;;;6.35;;
80245;SDS011;69558;39.208;-77.226;2023-08-06T08:25:27;8.38;;;5.88;;
80245;SDS011;69558;39.208;-77.226;2023-08-06T08:27:54;8.48;;;7.03;;
80245;SDS011;69558;39.208;-77.226;2023-08-06T08:30:20;8.38;;;6.10;;
80245;SDS011;69558;39.208;-77.226;2023-08-06T08:32:47;8.60;;;6.15;;
80245;SDS011;69558;39.208;-77.226;2023-08-06T08:35:14;8.45;;;6.43;;
80245;SDS011;69558;39.208;-77.226;2023-08-06T08:37:41;8.30;;;6.63;;
80245;SDS011;69558;39.208;-77.226;2023-08-06T08:40:08;8.55;;;6.45;;
80245;SDS011;69558;39.208;-77.226;2023-08-06T08:45:04;9.40;;;7.03;;
80245;SDS011;69558;39.208;-77.226;2023-08-06T08:47:33;8.45;;;6.47;;
80245;SDS011;69558;39.208;-77.226;2023-08-06T08:49:59;7.88;;;5.93;;
80245;SDS011;69558;39.208;-77.226;2023-08-06T08:52:26;7.95;;;6.43;;
80245;SDS011;69558;39.208;-77.226;2023-08-06T08:54:55;8.45;;;6.55;;
80245;SDS011;69558;39.208;-77.226;2023-08-06T08:57:21;9.07;;;6.78;;
80245;SDS011;69558;39.208;-77.226;2023-08-06T08:59:47;8.90;;;6.47;;
80245;SDS011;69558;39.208;-77.226;2023-08-06T09:02:14;8.05;;;6.20;;
80245;SDS011;69558;39.208;-77.226;2023-08-06T09:04:42;8.52;;;6.28;;
80245;SDS011;69558;39.208;-77.226;2023-08-06T09:07:10;8.55;;;6.72;;
80245;SDS011;69558;39.208;-77.226;2023-08-06T09:09:40;8.75;;;6.10;;
80245;SDS011;69558;39.208;-77.226;2023-08-06T09:12:15;8.10;;;6.35;;
80245;SDS011;69558;39.208;-77.226;2023-08-06T09:14:42;9.30;;;7.55;;
80245;SDS011;69558;39.208;-77.226;2023-08-06T09:17:08;8.25;;;6.18;;
80245;SDS011;69558;39.208;-77.226;2023-08-06T09:24:28;7.60;;;6.10;;
80245;SDS011;69558;39.208;-77.226;2023-08-06T09:26:54;8.48;;;6.32;;
80245;SDS011;69558;39.208;-77.226;2023-08-06T09:29:20;8.63;;;6.10;;
80245;SDS011;69558;39.208;-77.226;2023-08-06T09:31:47;7.93;;;5.90;;
80245;SDS011;69558;39.208;-77.226;2023-08-06T09:34:16;7.65;;;6.70;;
80245;SDS011;69558;39.208;-77.226;2023-08-06T09:36:42;8.32;;;6.13;;
80245;SDS011;69558;39.208;-77.226;2023-08-06T09:39:15;7.40;;;5.72;;
80245;SDS011;69558;39.208;-77.226;2023-08-06T09:41:42;7.57;;;5.85;;
80245;SDS011;69558;39.208;-77.226;2023-08-06T09:44:19;7.65;;;6.05;;
80245;SDS011;69558;39.208;-77.226;2023-08-06T09:46:47;8.30;;;5.93;;
80245;SDS011;69558;39.208;-77.226;2023-08-06T09:49:14;7.90;;;6.20;;
80245;SDS011;69558;39.208;-77.226;2023-08-06T09:51:41;8.27;;;5.65;;
80245;SDS011;69558;39.208;-77.226;2023-08-06T09:54:07;8.10;;;6.45;;
80245;SDS011;69558;39.208;-77.226;2023-08-06T09:56:37;8.77;;;5.22;;
80245;SDS011;69558;39.208;-77.226;2023-08-06T09:59:04;7.20;;;5.32;;
80245;SDS011;69558;39.208;-77.226;2023-08-06T10:01:35;7.47;;;5.60;;
80245;SDS011;69558;39.208;-77.226;2023-08-06T10:04:03;7.55;;;5.90;;
80245;SDS011;69558;39.208;-77.226;2023-08-06T10:06:31;8.38;;;6.15;;
80245;SDS011;69558;39.208;-77.226;2023-08-06T10:09:00;8.13;;;5.82;;
80245;SDS011;69558;39.208;-77.226;2023-08-06T10:11:26;7.90;;;5.78;;
80245;SDS011;69558;39.208;-77.226;2023-08-06T10:14:36;7.15;;;5.30;;
80245;SDS011;69558;39.208;-77.226;2023-08-06T10:16:51;7.70;;;6.03;;
80245;SDS011;69558;39.208;-77.226;2023-08-06T10:19:17;8.23;;;6.10;;
80245;SDS011;69558;39.208;-77.226;2023-08-06T10:24:51;7.95;;;6.20;;
80245;SDS011;69558;39.208;-77.226;2023-08-06T10:28:20;6.45;;;5.07;;
80245;SDS011;69558;39.208;-77.226;2023-08-06T10:30:21;6.97;;;5.13;;
80245;SDS011;69558;39.208;-77.226;2023-08-06T10:32:55;6.43;;;5.03;;
80245;SDS011;69558;39.208;-77.226;2023-08-06T10:35:34;7.68;;;5.82;;
80245;SDS011;69558;39.208;-77.226;2023-08-06T10:38:11;7.60;;;5.50;;
80245;SDS011;69558;39.208;-77.226;2023-08-06T10:40:43;6.70;;;5.10;;
80245;SDS011;69558;39.208;-77.226;2023-08-06T10:43:34;7.78;;;5.70;;
80245;SDS011;69558;39.208;-77.226;2023-08-06T10:46:11;7.45;;;5.78;;
80245;SDS011;69558;39.208;-77.226;2023-08-06T10:48:46;8.13;;;6.38;;
80245;SDS011;69558;39.208;-77.226;2023-08-06T10:51:14;7.05;;;5.35;;
80245;SDS011;69558;39.208;-77.226;2023-08-06T10:53:47;7.50;;;5.82;;
80245;SDS011;69558;39.208;-77.226;2023-08-06T10:56:15;6.68;;;5.15;;
80245;SDS011;69558;39.208;-77.226;2023-08-06T11:01:08;7.25;;;5.57;;
80245;SDS011;69558;39.208;-77.226;2023-08-06T11:03:34;8.02;;;6.18;;
80245;SDS011;69558;39.208;-77.226;2023-08-06T11:06:02;6.97;;;5.28;;
80245;SDS011;69558;39.208;-77.226;2023-08-06T11:08:29;7.57;;;5.70;;
80245;SDS011;69558;39.208;-77.226;2023-08-06T11:11:09;7.22;;;5.45;;
80245;SDS011;69558;39.208;-77.226;2023-08-06T11:13:42;8.32;;;5.85;;
80245;SDS011;69558;39.208;-77.226;2023-08-06T11:16:13;6.80;;;5.30;;
80245;SDS011;69558;39.208;-77.226;2023-08-06T11:18:40;7.60;;;5.53;;
80245;SDS011;69558;39.208;-77.226;2023-08-06T11:21:10;12.20;;;5.63;;
80245;SDS011;69558;39.208;-77.226;2023-08-06T11:23:42;7.80;;;5.75;;
80245;SDS011;69558;39.208;-77.226;2023-08-06T11:26:08;7.47;;;5.70;;
80245;SDS011;69558;39.208;-77.226;2023-08-06T11:28:34;9.15;;;5.60;;
80245;SDS011;69558;39.208;-77.226;2023-08-06T11:31:01;8.50;;;5.68;;
80245;SDS011;69558;39.208;-77.226;2023-08-06T11:33:29;7.10;;;5.45;;
80245;SDS011;69558;39.208;-77.226;2023-08-06T11:35:55;7.15;;;5.75;;
80245;SDS011;69558;39.208;-77.226;2023-08-06T11:38:29;7.43;;;5.43;;
80245;SDS011;69558;39.208;-77.226;2023-08-06T11:40:55;7.60;;;5.07;;
80245;SDS011;69558;39.208;-77.226;2023-08-06T11:43:22;8.05;;;5.65;;
80245;SDS011;69558;39.208;-77.226;2023-08-06T11:45:50;7.90;;;5.68;;
80245;SDS011;69558;39.208;-77.226;2023-08-06T11:48:17;8.63;;;5.68;;
80245;SDS011;69558;39.208;-77.226;2023-08-06T11:50:43;7.05;;;4.75;;
80245;SDS011;69558;39.208;-77.226;2023-08-06T11:53:11;7.80;;;5.07;;
80245;SDS011;69558;39.208;-77.226;2023-08-06T11:55:39;8.43;;;4.93;;
80245;SDS011;69558;39.208;-77.226;2023-08-06T11:58:06;7.93;;;5.47;;
80245;SDS011;69558;39.208;-77.226;2023-08-06T12:00:32;7.55;;;5.80;;
80245;SDS011;69558;39.208;-77.226;2023-08-06T12:02:58;7.43;;;5.75;;
80245;SDS011;69558;39.208;-77.226;2023-08-06T12:05:31;7.30;;;5.10;;
80245;SDS011;69558;39.208;-77.226;2023-08-06T12:08:01;7.95;;;6.13;;
80245;SDS011;69558;39.208;-77.226;2023-08-06T12:10:28;7.55;;;6.13;;
80245;SDS011;69558;39.208;-77.226;2023-08-06T12:12:56;7.30;;;5.25;;
80245;SDS011;69558;39.208;-77.226;2023-08-06T12:15:23;7.32;;;5.50;;
80245;SDS011;69558;39.208;-77.226;2023-08-06T12:17:49;6.93;;;5.47;;
80245;SDS011;69558;39.208;-77.226;2023-08-06T12:20:15;7.03;;;5.22;;
80245;SDS011;69558;39.208;-77.226;2023-08-06T12:22:41;6.57;;;4.72;;
80245;SDS011;69558;39.208;-77.226;2023-08-06T12:25:09;6.53;;;4.88;;
80245;SDS011;69558;39.208;-77.226;2023-08-06T12:27:42;6.72;;;4.90;;
80245;SDS011;69558;39.208;-77.226;2023-08-06T12:30:09;7.88;;;6.15;;
80245;SDS011;69558;39.208;-77.226;2023-08-06T12:32:37;7.10;;;5.95;;
80245;SDS011;69558;39.208;-77.226;2023-08-06T12:35:03;6.97;;;5.30;;
80245;SDS011;69558;39.208;-77.226;2023-08-06T12:37:33;8.35;;;5.70;;
80245;SDS011;69558;39.208;-77.226;2023-08-06T12:39:59;6.22;;;4.80;;
80245;SDS011;69558;39.208;-77.226;2023-08-06T12:42:25;6.60;;;4.88;;
80245;SDS011;69558;39.208;-77.226;2023-08-06T12:44:51;6.78;;;5.40;;
80245;SDS011;69558;39.208;-77.226;2023-08-06T12:47:18;7.00;;;5.30;;
80245;SDS011;69558;39.208;-77.226;2023-08-06T12:49:45;6.90;;;5.07;;
80245;SDS011;69558;39.208;-77.226;2023-08-06T12:52:10;7.63;;;5.40;;
80245;SDS011;69558;39.208;-77.226;2023-08-06T12:54:40;7.35;;;5.25;;
80245;SDS011;69558;39.208;-77.226;2023-08-06T12:57:06;8.23;;;5.72;;
80245;SDS011;69558;39.208;-77.226;2023-08-06T12:59:32;7.38;;;4.93;;
80245;SDS011;69558;39.208;-77.226;2023-08-06T13:01:59;7.35;;;5.78;;
80245;SDS011;69558;39.208;-77.226;2023-08-06T13:04:25;7.35;;;4.78;;
80245;SDS011;69558;39.208;-77.226;2023-08-06T13:06:52;7.05;;;5.55;;
80245;SDS011;69558;39.208;-77.226;2023-08-06T13:09:18;7.38;;;5.32;;
80245;SDS011;69558;39.208;-77.226;2023-08-06T13:11:44;7.63;;;5.53;;
80245;SDS011;69558;39.208;-77.226;2023-08-06T13:14:15;6.97;;;4.95;;
80245;SDS011;69558;39.208;-77.226;2023-08-06T13:16:42;6.00;;;4.35;;
80245;SDS011;69558;39.208;-77.226;2023-08-06T13:19:09;7.38;;;4.95;;
80245;SDS011;69558;39.208;-77.226;2023-08-06T13:22:21;6.15;;;4.70;;
80245;SDS011;69558;39.208;-77.226;2023-08-06T13:24:27;6.22;;;4.60;;
80245;SDS011;69558;39.208;-77.226;2023-08-06T13:26:54;6.60;;;4.50;;
80245;SDS011;69558;39.208;-77.226;2023-08-06T13:29:20;6.63;;;4.90;;
80245;SDS011;69558;39.208;-77.226;2023-08-06T13:31:46;6.40;;;4.60;;
80245;SDS011;69558;39.208;-77.226;2023-08-06T13:34:11;6.07;;;4.30;;
80245;SDS011;69558;39.208;-77.226;2023-08-06T13:36:38;6.35;;;4.43;;
80245;SDS011;69558;39.208;-77.226;2023-08-06T13:39:04;6.72;;;4.97;;
80245;SDS011;69558;39.208;-77.226;2023-08-06T13:41:30;6.57;;;4.65;;
80245;SDS011;69558;39.208;-77.226;2023-08-06T13:43:56;6.13;;;4.35;;
80245;SDS011;69558;39.208;-77.226;2023-08-06T13:46:22;6.72;;;4.93;;
80245;SDS011;69558;39.208;-77.226;2023-08-06T13:48:48;6.38;;;4.45;;
80245;SDS011;69558;39.208;-77.226;2023-08-06T13:51:17;6.32;;;4.70;;
80245;SDS011;69558;39.208;-77.226;2023-08-06T13:53:44;6.35;;;4.47;;
80245;SDS011;69558;39.208;-77.226;2023-08-06T13:56:10;6.82;;;4.70;;
80245;SDS011;69558;39.208;-77.226;2023-08-06T13:58:37;6.32;;;4.43;;
80245;SDS011;69558;39.208;-77.226;2023-08-06T14:01:03;7.03;;;4.70;;
80245;SDS011;69558;39.208;-77.226;2023-08-06T14:03:30;5.80;;;4.00;;
80245;SDS011;69558;39.208;-77.226;2023-08-06T14:05:56;6.20;;;4.60;;
80245;SDS011;69558;39.208;-77.226;2023-08-06T14:08:23;5.95;;;4.38;;
80245;SDS011;69558;39.208;-77.226;2023-08-06T14:10:50;5.70;;;4.40;;
80245;SDS011;69558;39.208;-77.226;2023-08-06T14:13:19;5.85;;;4.22;;
80245;SDS011;69558;39.208;-77.226;2023-08-06T14:15:46;6.00;;;4.10;;
80245;SDS011;69558;39.208;-77.226;2023-08-06T14:18:13;6.53;;;5.00;;
80245;SDS011;69558;39.208;-77.226;2023-08-06T14:20:39;6.15;;;4.05;;
80245;SDS011;69558;39.208;-77.226;2023-08-06T14:23:06;6.25;;;4.65;;
80245;SDS011;69558;39.208;-77.226;2023-08-06T14:25:33;6.10;;;4.47;;
80245;SDS011;69558;39.208;-77.226;2023-08-06T14:27:58;6.15;;;4.30;;
80245;SDS011;69558;39.208;-77.226;2023-08-06T14:30:24;6.45;;;4.32;;
80245;SDS011;69558;39.208;-77.226;2023-08-06T14:32:50;6.82;;;4.63;;
80245;SDS011;69558;39.208;-77.226;2023-08-06T14:35:16;5.50;;;4.30;;
80245;SDS011;69558;39.208;-77.226;2023-08-06T14:37:42;6.07;;;4.57;;
80245;SDS011;69558;39.208;-77.226;2023-08-06T14:42:35;6.78;;;4.65;;
80245;SDS011;69558;39.208;-77.226;2023-08-06T14:45:02;6.32;;;4.57;;
80245;SDS011;69558;39.208;-77.226;2023-08-06T14:47:29;7.63;;;4.70;;